sensor_id;sensor_type;location;lat;lon;timestamp;temperature;humidity
14614;DHT22;7393;51.446;6.800;2023-10-08T00:02:24;19.00;1.00
14614;DHT22;7393;51.446;6.800;2023-10-08T00:04:52;19.00;1.00
14614;DHT22;7393;51.446;6.800;2023-10-08T00:07:20;19.00;1.00
14614;DHT22;7393;51.446;6.800;2023-10-08T00:09:48;19.00;1.00
14614;DHT22;7393;51.446;6.800;2023-10-08T00:12:16;18.90;1.00
14614;DHT22;7393;51.446;6.800;2023-10-08T00:14:45;18.90;1.00
14614;DHT22;7393;51.446;6.800;2023-10-08T00:17:15;18.90;1.00
14614;DHT22;7393;51.446;6.800;2023-10-08T00:19:44;19.00;1.00
14614;DHT22;7393;51.446;6.800;2023-10-08T00:22:11;19.00;1.00
14614;DHT22;7393;51.446;6.800;2023-10-08T00:24:39;18.90;1.00
14614;DHT22;7393;51.446;6.800;2023-10-08T00:27:07;18.90;1.00
14614;DHT22;7393;51.446;6.800;2023-10-08T00:29:34;18.90;1.00
14614;DHT22;7393;51.446;6.800;2023-10-08T00:32:04;18.90;1.00
14614;DHT22;7393;51.446;6.800;2023-10-08T00:34:37;18.90;1.00
14614;DHT22;7393;51.446;6.800;2023-10-08T00:37:09;18.90;1.00
14614;DHT22;7393;51.446;6.800;2023-10-08T00:39:37;18.80;1.00
14614;DHT22;7393;51.446;6.800;2023-10-08T00:42:06;18.80;1.00
14614;DHT22;7393;51.446;6.800;2023-10-08T00:44:33;18.80;1.00
14614;DHT22;7393;51.446;6.800;2023-10-08T00:47:06;18.80;99.90
14614;DHT22;7393;51.446;6.800;2023-10-08T00:49:36;18.70;14.10
14614;DHT22;7393;51.446;6.800;2023-10-08T00:52:21;18.70;99.90
14614;DHT22;7393;51.446;6.800;2023-10-08T00:55:06;18.70;99.90
14614;DHT22;7393;51.446;6.800;2023-10-08T00:57:47;18.70;99.90
14614;DHT22;7393;51.446;6.800;2023-10-08T01:00:16;18.70;99.90
14614;DHT22;7393;51.446;6.800;2023-10-08T01:02:47;18.70;99.90
14614;DHT22;7393;51.446;6.800;2023-10-08T01:05:25;18.70;99.90
14614;DHT22;7393;51.446;6.800;2023-10-08T01:08:09;18.70;99.90
14614;DHT22;7393;51.446;6.800;2023-10-08T01:10:38;18.70;99.90
14614;DHT22;7393;51.446;6.800;2023-10-08T01:13:09;18.60;47.80
14614;DHT22;7393;51.446;6.800;2023-10-08T01:15:41;18.60;99.90
14614;DHT22;7393;51.446;6.800;2023-10-08T01:18:10;18.60;99.90
14614;DHT22;7393;51.446;6.800;2023-10-08T01:20:43;18.60;99.90
14614;DHT22;7393;51.446;6.800;2023-10-08T01:23:19;18.50;99.90
14614;DHT22;7393;51.446;6.800;2023-10-08T01:25:49;18.50;99.90
14614;DHT22;7393;51.446;6.800;2023-10-08T01:28:18;18.50;1.00
14614;DHT22;7393;51.446;6.800;2023-10-08T01:30:51;18.50;1.00
14614;DHT22;7393;51.446;6.800;2023-10-08T01:33:19;18.40;1.00
14614;DHT22;7393;51.446;6.800;2023-10-08T01:35:54;18.40;1.00
14614;DHT22;7393;51.446;6.800;2023-10-08T01:38:26;18.40;1.00
14614;DHT22;7393;51.446;6.800;2023-10-08T01:40:53;18.30;1.00
14614;DHT22;7393;51.446;6.800;2023-10-08T01:43:22;18.40;1.00
14614;DHT22;7393;51.446;6.800;2023-10-08T01:45:52;18.40;1.00
14614;DHT22;7393;51.446;6.800;2023-10-08T01:48:20;18.40;1.00
14614;DHT22;7393;51.446;6.800;2023-10-08T01:50:55;18.30;1.00
14614;DHT22;7393;51.446;6.800;2023-10-08T01:53:28;18.30;99.90
14614;DHT22;7393;51.446;6.800;2023-10-08T01:55:56;18.20;99.90
14614;DHT22;7393;51.446;6.800;2023-10-08T01:58:23;18.20;99.90
14614;DHT22;7393;51.446;6.800;2023-10-08T02:00:50;18.20;99.90
14614;DHT22;7393;51.446;6.800;2023-10-08T02:03:18;18.20;99.90
14614;DHT22;7393;51.446;6.800;2023-10-08T02:05:46;18.20;99.90
14614;DHT22;7393;51.446;6.800;2023-10-08T02:08:14;18.20;99.90
14614;DHT22;7393;51.446;6.800;2023-10-08T02:10:44;18.20;99.90
14614;DHT22;7393;51.446;6.800;2023-10-08T02:13:13;18.20;99.90
14614;DHT22;7393;51.446;6.800;2023-10-08T02:15:43;18.20;99.90
14614;DHT22;7393;51.446;6.800;2023-10-08T02:18:10;18.10;99.90
14614;DHT22;7393;51.446;6.800;2023-10-08T02:20:38;18.10;99.90
14614;DHT22;7393;51.446;6.800;2023-10-08T02:23:05;18.10;99.90
14614;DHT22;7393;51.446;6.800;2023-10-08T02:25:32;18.10;99.90
14614;DHT22;7393;51.446;6.800;2023-10-08T02:28:03;18.10;99.90
14614;DHT22;7393;51.446;6.800;2023-10-08T02:30:30;18.00;99.90
14614;DHT22;7393;51.446;6.800;2023-10-08T02:32:57;18.00;1.00
14614;DHT22;7393;51.446;6.800;2023-10-08T02:35:24;18.00;1.00
14614;DHT22;7393;51.446;6.800;2023-10-08T02:37:50;18.00;1.00
14614;DHT22;7393;51.446;6.800;2023-10-08T02:40:18;18.00;99.90
14614;DHT22;7393;51.446;6.800;2023-10-08T02:42:52;18.00;99.90
14614;DHT22;7393;51.446;6.800;2023-10-08T02:45:25;18.00;99.90
14614;DHT22;7393;51.446;6.800;2023-10-08T02:47:52;17.90;99.90
14614;DHT22;7393;51.446;6.800;2023-10-08T02:50:19;17.90;99.90
14614;DHT22;7393;51.446;6.800;2023-10-08T02:52:47;17.90;99.90
14614;DHT22;7393;51.446;6.800;2023-10-08T02:55:15;17.80;99.90
14614;DHT22;7393;51.446;6.800;2023-10-08T02:57:54;17.80;99.90
14614;DHT22;7393;51.446;6.800;2023-10-08T03:00:21;17.80;99.90
14614;DHT22;7393;51.446;6.800;2023-10-08T03:02:56;17.80;99.90
14614;DHT22;7393;51.446;6.800;2023-10-08T03:05:23;17.80;1.00
14614;DHT22;7393;51.446;6.800;2023-10-08T03:07:55;17.80;1.00
14614;DHT22;7393;51.446;6.800;2023-10-08T03:10:23;17.80;1.00
14614;DHT22;7393;51.446;6.800;2023-10-08T03:12:57;17.80;1.00
14614;DHT22;7393;51.446;6.800;2023-10-08T03:15:30;17.80;1.00
14614;DHT22;7393;51.446;6.800;2023-10-08T03:18:05;17.70;1.00
14614;DHT22;7393;51.446;6.800;2023-10-08T03:20:35;17.70;1.00
14614;DHT22;7393;51.446;6.800;2023-10-08T03:23:08;17.70;1.00
14614;DHT22;7393;51.446;6.800;2023-10-08T03:25:50;17.60;75.50
14614;DHT22;7393;51.446;6.800;2023-10-08T03:28:22;17.60;48.00
14614;DHT22;7393;51.446;6.800;2023-10-08T03:30:51;17.60;43.60
14614;DHT22;7393;51.446;6.800;2023-10-08T03:33:23;17.50;1.00
14614;DHT22;7393;51.446;6.800;2023-10-08T03:35:50;17.60;1.00
14614;DHT22;7393;51.446;6.800;2023-10-08T03:38:19;17.60;99.90
14614;DHT22;7393;51.446;6.800;2023-10-08T03:40:54;17.60;1.00
14614;DHT22;7393;51.446;6.800;2023-10-08T03:43:26;17.50;1.00
14614;DHT22;7393;51.446;6.800;2023-10-08T03:46:00;17.50;1.00
14614;DHT22;7393;51.446;6.800;2023-10-08T03:48:32;17.50;1.00
14614;DHT22;7393;51.446;6.800;2023-10-08T03:51:02;17.60;1.00
14614;DHT22;7393;51.446;6.800;2023-10-08T03:53:36;17.50;99.90
14614;DHT22;7393;51.446;6.800;2023-10-08T03:56:23;17.50;1.00
14614;DHT22;7393;51.446;6.800;2023-10-08T03:58:50;17.50;1.00
14614;DHT22;7393;51.446;6.800;2023-10-08T04:01:20;17.40;1.00
14614;DHT22;7393;51.446;6.800;2023-10-08T04:03:50;17.40;1.00
14614;DHT22;7393;51.446;6.800;2023-10-08T04:06:28;17.40;99.90
14614;DHT22;7393;51.446;6.800;2023-10-08T04:09:04;17.30;99.90
14614;DHT22;7393;51.446;6.800;2023-10-08T04:11:50;17.30;99.90
14614;DHT22;7393;51.446;6.800;2023-10-08T04:14:19;17.40;99.90
14614;DHT22;7393;51.446;6.800;2023-10-08T04:16:47;17.30;99.90
14614;DHT22;7393;51.446;6.800;2023-10-08T04:19:18;17.40;99.90
14614;DHT22;7393;51.446;6.800;2023-10-08T04:21:46;17.30;99.90
14614;DHT22;7393;51.446;6.800;2023-10-08T04:24:21;17.30;99.90
14614;DHT22;7393;51.446;6.800;2023-10-08T04:26:54;17.40;1.00
14614;DHT22;7393;51.446;6.800;2023-10-08T04:29:23;17.30;20.10
14614;DHT22;7393;51.446;6.800;2023-10-08T04:31:50;17.30;99.90
14614;DHT22;7393;51.446;6.800;2023-10-08T04:34:29;17.30;99.90
14614;DHT22;7393;51.446;6.800;2023-10-08T04:36:58;17.30;99.90
14614;DHT22;7393;51.446;6.800;2023-10-08T04:39:27;17.30;99.90
14614;DHT22;7393;51.446;6.800;2023-10-08T04:41:58;17.30;99.90
14614;DHT22;7393;51.446;6.800;2023-10-08T04:44:31;17.30;99.90
14614;DHT22;7393;51.446;6.800;2023-10-08T04:46:59;17.20;99.90
14614;DHT22;7393;51.446;6.800;2023-10-08T04:49:31;17.20;99.90
14614;DHT22;7393;51.446;6.800;2023-10-08T04:52:00;17.20;1.00
14614;DHT22;7393;51.446;6.800;2023-10-08T04:54:30;17.20;1.00
14614;DHT22;7393;51.446;6.800;2023-10-08T04:56:58;17.30;99.90
14614;DHT22;7393;51.446;6.800;2023-10-08T04:59:26;17.30;99.90
14614;DHT22;7393;51.446;6.800;2023-10-08T05:01:59;17.30;99.90
14614;DHT22;7393;51.446;6.800;2023-10-08T05:04:47;17.20;1.00
14614;DHT22;7393;51.446;6.800;2023-10-08T05:07:33;17.20;1.00
14614;DHT22;7393;51.446;6.800;2023-10-08T05:10:22;17.20;1.00
14614;DHT22;7393;51.446;6.800;2023-10-08T05:13:06;17.10;99.90
14614;DHT22;7393;51.446;6.800;2023-10-08T05:15:42;17.10;1.00
14614;DHT22;7393;51.446;6.800;2023-10-08T05:18:15;17.10;1.00
14614;DHT22;7393;51.446;6.800;2023-10-08T05:20:50;17.10;1.00
14614;DHT22;7393;51.446;6.800;2023-10-08T05:23:27;17.10;1.00
14614;DHT22;7393;51.446;6.800;2023-10-08T05:26:19;17.10;99.90
14614;DHT22;7393;51.446;6.800;2023-10-08T05:28:56;17.20;99.90
14614;DHT22;7393;51.446;6.800;2023-10-08T05:31:48;17.10;99.90
14614;DHT22;7393;51.446;6.800;2023-10-08T05:34:25;17.10;1.00
14614;DHT22;7393;51.446;6.800;2023-10-08T05:37:09;17.10;99.90
14614;DHT22;7393;51.446;6.800;2023-10-08T05:39:58;17.00;99.90
14614;DHT22;7393;51.446;6.800;2023-10-08T05:42:38;17.00;1.00
14614;DHT22;7393;51.446;6.800;2023-10-08T05:45:12;17.00;1.00
14614;DHT22;7393;51.446;6.800;2023-10-08T05:47:55;17.00;1.00
14614;DHT22;7393;51.446;6.800;2023-10-08T05:50:33;17.00;57.10
14614;DHT22;7393;51.446;6.800;2023-10-08T05:53:10;17.00;1.00
14614;DHT22;7393;51.446;6.800;2023-10-08T05:55:55;16.90;1.00
14614;DHT22;7393;51.446;6.800;2023-10-08T05:58:50;16.90;1.00
14614;DHT22;7393;51.446;6.800;2023-10-08T06:01:26;16.90;1.00
14614;DHT22;7393;51.446;6.800;2023-10-08T06:04:05;16.90;99.90
14614;DHT22;7393;51.446;6.800;2023-10-08T06:06:46;16.90;99.90
14614;DHT22;7393;51.446;6.800;2023-10-08T06:09:24;16.90;99.90
14614;DHT22;7393;51.446;6.800;2023-10-08T06:12:01;16.80;1.00
14614;DHT22;7393;51.446;6.800;2023-10-08T06:14:45;16.80;52.70
14614;DHT22;7393;51.446;6.800;2023-10-08T06:17:35;16.80;99.90
14614;DHT22;7393;51.446;6.800;2023-10-08T06:20:22;16.80;99.90
14614;DHT22;7393;51.446;6.800;2023-10-08T06:22:52;16.80;99.90
14614;DHT22;7393;51.446;6.800;2023-10-08T06:25:26;16.80;99.90
14614;DHT22;7393;51.446;6.800;2023-10-08T06:27:53;16.90;1.00
14614;DHT22;7393;51.446;6.800;2023-10-08T06:30:22;16.80;1.00
14614;DHT22;7393;51.446;6.800;2023-10-08T06:32:55;16.80;1.00
14614;DHT22;7393;51.446;6.800;2023-10-08T06:35:21;16.80;1.00
14614;DHT22;7393;51.446;6.800;2023-10-08T06:37:51;16.80;1.00
14614;DHT22;7393;51.446;6.800;2023-10-08T06:40:21;16.80;99.90
14614;DHT22;7393;51.446;6.800;2023-10-08T06:43:06;16.80;1.00
14614;DHT22;7393;51.446;6.800;2023-10-08T06:45:47;16.80;1.00
14614;DHT22;7393;51.446;6.800;2023-10-08T06:48:18;16.80;1.00
14614;DHT22;7393;51.446;6.800;2023-10-08T06:50:47;16.80;1.00
14614;DHT22;7393;51.446;6.800;2023-10-08T06:53:14;16.80;99.90
14614;DHT22;7393;51.446;6.800;2023-10-08T06:55:43;16.80;1.00
14614;DHT22;7393;51.446;6.800;2023-10-08T06:58:12;16.80;1.00
14614;DHT22;7393;51.446;6.800;2023-10-08T07:00:40;16.80;1.00
14614;DHT22;7393;51.446;6.800;2023-10-08T07:03:12;16.80;99.90
14614;DHT22;7393;51.446;6.800;2023-10-08T07:05:41;16.80;99.90
14614;DHT22;7393;51.446;6.800;2023-10-08T07:08:10;16.80;99.90
14614;DHT22;7393;51.446;6.800;2023-10-08T07:10:39;16.90;99.90
14614;DHT22;7393;51.446;6.800;2023-10-08T07:13:08;16.90;1.00
14614;DHT22;7393;51.446;6.800;2023-10-08T07:15:37;16.90;1.00
14614;DHT22;7393;51.446;6.800;2023-10-08T07:18:06;16.90;1.00
14614;DHT22;7393;51.446;6.800;2023-10-08T07:20:39;16.90;99.90
14614;DHT22;7393;51.446;6.800;2023-10-08T07:23:08;16.90;1.00
14614;DHT22;7393;51.446;6.800;2023-10-08T07:25:53;16.90;1.00
14614;DHT22;7393;51.446;6.800;2023-10-08T07:28:24;17.00;1.00
14614;DHT22;7393;51.446;6.800;2023-10-08T07:30:53;17.00;99.90
14614;DHT22;7393;51.446;6.800;2023-10-08T07:33:20;17.00;99.90
14614;DHT22;7393;51.446;6.800;2023-10-08T07:35:51;17.00;1.00
14614;DHT22;7393;51.446;6.800;2023-10-08T07:38:23;17.00;99.90
14614;DHT22;7393;51.446;6.800;2023-10-08T07:40:52;17.00;1.00
14614;DHT22;7393;51.446;6.800;2023-10-08T07:43:20;17.10;1.00
14614;DHT22;7393;51.446;6.800;2023-10-08T07:45:47;17.10;99.90
14614;DHT22;7393;51.446;6.800;2023-10-08T07:48:15;17.10;1.00
14614;DHT22;7393;51.446;6.800;2023-10-08T07:50:44;17.10;1.00
14614;DHT22;7393;51.446;6.800;2023-10-08T07:53:12;17.10;1.00
14614;DHT22;7393;51.446;6.800;2023-10-08T07:55:46;17.10;1.00
14614;DHT22;7393;51.446;6.800;2023-10-08T07:58:15;17.10;1.00
14614;DHT22;7393;51.446;6.800;2023-10-08T08:00:42;17.10;1.00
14614;DHT22;7393;51.446;6.800;2023-10-08T08:03:19;17.20;1.00
14614;DHT22;7393;51.446;6.800;2023-10-08T08:05:46;17.20;1.00
14614;DHT22;7393;51.446;6.800;2023-10-08T08:08:13;17.20;1.00
14614;DHT22;7393;51.446;6.800;2023-10-08T08:10:43;17.20;1.00
14614;DHT22;7393;51.446;6.800;2023-10-08T08:13:11;17.20;1.00
14614;DHT22;7393;51.446;6.800;2023-10-08T08:15:39;17.30;99.90
14614;DHT22;7393;51.446;6.800;2023-10-08T08:18:18;17.30;99.90
14614;DHT22;7393;51.446;6.800;2023-10-08T08:20:49;17.30;99.90
14614;DHT22;7393;51.446;6.800;2023-10-08T08:23:16;17.30;99.90
14614;DHT22;7393;51.446;6.800;2023-10-08T08:25:43;17.30;1.00
14614;DHT22;7393;51.446;6.800;2023-10-08T08:28:21;17.30;1.00
14614;DHT22;7393;51.446;6.800;2023-10-08T08:30:50;17.30;1.00
14614;DHT22;7393;51.446;6.800;2023-10-08T08:33:19;17.30;1.00
14614;DHT22;7393;51.446;6.800;2023-10-08T08:35:57;17.30;1.00
14614;DHT22;7393;51.446;6.800;2023-10-08T08:38:26;17.40;99.90
14614;DHT22;7393;51.446;6.800;2023-10-08T08:41:02;17.50;99.90
14614;DHT22;7393;51.446;6.800;2023-10-08T08:43:34;17.40;99.90
14614;DHT22;7393;51.446;6.800;2023-10-08T08:46:02;17.40;99.90
14614;DHT22;7393;51.446;6.800;2023-10-08T08:48:34;17.40;1.00
14614;DHT22;7393;51.446;6.800;2023-10-08T08:51:01;17.40;1.00
14614;DHT22;7393;51.446;6.800;2023-10-08T08:53:28;17.40;1.00
14614;DHT22;7393;51.446;6.800;2023-10-08T08:55:55;17.40;1.00
14614;DHT22;7393;51.446;6.800;2023-10-08T08:58:22;17.40;1.00
14614;DHT22;7393;51.446;6.800;2023-10-08T09:00:52;17.40;1.00
14614;DHT22;7393;51.446;6.800;2023-10-08T09:03:19;17.50;1.00
14614;DHT22;7393;51.446;6.800;2023-10-08T09:05:47;17.50;1.00
14614;DHT22;7393;51.446;6.800;2023-10-08T09:08:16;17.60;1.00
14614;DHT22;7393;51.446;6.800;2023-10-08T09:10:44;17.70;1.00
14614;DHT22;7393;51.446;6.800;2023-10-08T09:13:19;17.60;1.00
14614;DHT22;7393;51.446;6.800;2023-10-08T09:15:48;17.50;1.00
14614;DHT22;7393;51.446;6.800;2023-10-08T09:18:14;17.40;1.00
14614;DHT22;7393;51.446;6.800;2023-10-08T09:20:41;17.40;99.90
14614;DHT22;7393;51.446;6.800;2023-10-08T09:23:13;17.30;1.00
14614;DHT22;7393;51.446;6.800;2023-10-08T09:25:40;17.30;99.90
14614;DHT22;7393;51.446;6.800;2023-10-08T09:28:08;17.30;99.90
14614;DHT22;7393;51.446;6.800;2023-10-08T09:30:38;17.20;99.90
14614;DHT22;7393;51.446;6.800;2023-10-08T09:33:05;17.20;1.00
14614;DHT22;7393;51.446;6.800;2023-10-08T09:35:33;17.20;1.00
14614;DHT22;7393;51.446;6.800;2023-10-08T09:38:02;17.20;1.00
14614;DHT22;7393;51.446;6.800;2023-10-08T09:40:30;17.20;1.00
14614;DHT22;7393;51.446;6.800;2023-10-08T09:42:59;17.10;1.00
14614;DHT22;7393;51.446;6.800;2023-10-08T09:45:26;17.10;1.00
14614;DHT22;7393;51.446;6.800;2023-10-08T09:47:55;17.10;1.00
14614;DHT22;7393;51.446;6.800;2023-10-08T09:50:29;17.10;1.00
14614;DHT22;7393;51.446;6.800;2023-10-08T09:53:01;17.10;1.00
14614;DHT22;7393;51.446;6.800;2023-10-08T09:55:33;17.10;46.90
14614;DHT22;7393;51.446;6.800;2023-10-08T09:58:00;17.10;1.00
14614;DHT22;7393;51.446;6.800;2023-10-08T10:00:28;17.10;1.00
14614;DHT22;7393;51.446;6.800;2023-10-08T10:02:58;17.10;1.00
14614;DHT22;7393;51.446;6.800;2023-10-08T10:05:29;17.10;1.00
14614;DHT22;7393;51.446;6.800;2023-10-08T10:07:57;17.10;1.00
14614;DHT22;7393;51.446;6.800;2023-10-08T10:10:28;17.10;1.00
14614;DHT22;7393;51.446;6.800;2023-10-08T10:12:59;17.00;1.00
14614;DHT22;7393;51.446;6.800;2023-10-08T10:15:53;17.10;1.00
14614;DHT22;7393;51.446;6.800;2023-10-08T10:18:28;17.00;87.20
14614;DHT22;7393;51.446;6.800;2023-10-08T10:20:58;17.10;37.90
14614;DHT22;7393;51.446;6.800;2023-10-08T10:23:35;17.20;1.00
14614;DHT22;7393;51.446;6.800;2023-10-08T10:26:03;17.10;1.00
14614;DHT22;7393;51.446;6.800;2023-10-08T10:28:30;17.10;1.00
14614;DHT22;7393;51.446;6.800;2023-10-08T10:31:00;17.10;1.00
14614;DHT22;7393;51.446;6.800;2023-10-08T10:33:30;17.10;1.00
14614;DHT22;7393;51.446;6.800;2023-10-08T10:35:57;17.20;1.00
14614;DHT22;7393;51.446;6.800;2023-10-08T10:38:26;17.20;99.90
14614;DHT22;7393;51.446;6.800;2023-10-08T10:40:55;17.20;1.00
14614;DHT22;7393;51.446;6.800;2023-10-08T10:43:24;17.20;43.10
14614;DHT22;7393;51.446;6.800;2023-10-08T10:46:00;17.10;99.90
14614;DHT22;7393;51.446;6.800;2023-10-08T10:48:49;17.10;33.40
14614;DHT22;7393;51.446;6.800;2023-10-08T10:51:30;17.10;1.00
14614;DHT22;7393;51.446;6.800;2023-10-08T10:53:59;17.00;99.90
14614;DHT22;7393;51.446;6.800;2023-10-08T10:56:34;17.00;99.90
14614;DHT22;7393;51.446;6.800;2023-10-08T10:59:06;16.90;99.90
14614;DHT22;7393;51.446;6.800;2023-10-08T11:01:45;16.90;99.90
14614;DHT22;7393;51.446;6.800;2023-10-08T11:04:12;16.80;1.00
14614;DHT22;7393;51.446;6.800;2023-10-08T11:06:41;16.80;1.00
14614;DHT22;7393;51.446;6.800;2023-10-08T11:09:10;16.70;1.00
14614;DHT22;7393;51.446;6.800;2023-10-08T11:11:41;16.70;1.00
14614;DHT22;7393;51.446;6.800;2023-10-08T11:14:12;16.60;1.00
14614;DHT22;7393;51.446;6.800;2023-10-08T11:16:46;16.60;1.00
14614;DHT22;7393;51.446;6.800;2023-10-08T11:19:14;16.60;1.00
14614;DHT22;7393;51.446;6.800;2023-10-08T11:21:49;16.50;1.00
14614;DHT22;7393;51.446;6.800;2023-10-08T11:24:27;16.50;99.90
14614;DHT22;7393;51.446;6.800;2023-10-08T11:26:54;16.50;1.00
14614;DHT22;7393;51.446;6.800;2023-10-08T11:29:32;16.50;1.00
14614;DHT22;7393;51.446;6.800;2023-10-08T11:32:01;16.50;1.00
14614;DHT22;7393;51.446;6.800;2023-10-08T11:34:32;16.60;99.90
14614;DHT22;7393;51.446;6.800;2023-10-08T11:37:04;16.70;99.90
14614;DHT22;7393;51.446;6.800;2023-10-08T11:39:39;16.70;99.90
14614;DHT22;7393;51.446;6.800;2023-10-08T11:42:11;16.70;1.00
14614;DHT22;7393;51.446;6.800;2023-10-08T11:45:03;16.80;1.00
14614;DHT22;7393;51.446;6.800;2023-10-08T11:47:45;16.90;99.90
14614;DHT22;7393;51.446;6.800;2023-10-08T11:50:14;16.90;1.00
14614;DHT22;7393;51.446;6.800;2023-10-08T11:52:45;16.90;1.00
14614;DHT22;7393;51.446;6.800;2023-10-08T11:55:12;16.90;99.90
14614;DHT22;7393;51.446;6.800;2023-10-08T11:57:45;17.00;20.90
14614;DHT22;7393;51.446;6.800;2023-10-08T12:00:15;17.00;1.00
14614;DHT22;7393;51.446;6.800;2023-10-08T12:02:52;17.10;1.00
14614;DHT22;7393;51.446;6.800;2023-10-08T12:05:21;17.10;99.90
14614;DHT22;7393;51.446;6.800;2023-10-08T12:07:52;17.20;1.00
14614;DHT22;7393;51.446;6.800;2023-10-08T12:10:23;17.30;99.90
14614;DHT22;7393;51.446;6.800;2023-10-08T12:12:50;17.30;99.90
14614;DHT22;7393;51.446;6.800;2023-10-08T12:15:18;17.30;99.90
14614;DHT22;7393;51.446;6.800;2023-10-08T12:17:47;17.40;1.00
14614;DHT22;7393;51.446;6.800;2023-10-08T12:20:35;17.40;1.00
14614;DHT22;7393;51.446;6.800;2023-10-08T12:23:04;17.40;1.00
14614;DHT22;7393;51.446;6.800;2023-10-08T12:25:31;17.40;1.00
14614;DHT22;7393;51.446;6.800;2023-10-08T12:28:00;17.50;1.00
14614;DHT22;7393;51.446;6.800;2023-10-08T12:30:29;17.50;99.90
14614;DHT22;7393;51.446;6.800;2023-10-08T12:33:07;17.50;99.90
14614;DHT22;7393;51.446;6.800;2023-10-08T12:35:39;17.60;1.00
14614;DHT22;7393;51.446;6.800;2023-10-08T12:38:06;17.60;1.00
14614;DHT22;7393;51.446;6.800;2023-10-08T12:40:34;17.60;1.00
14614;DHT22;7393;51.446;6.800;2023-10-08T12:43:13;17.60;99.90
14614;DHT22;7393;51.446;6.800;2023-10-08T12:45:44;17.70;99.90
14614;DHT22;7393;51.446;6.800;2023-10-08T12:48:18;17.60;99.90
14614;DHT22;7393;51.446;6.800;2023-10-08T12:50:46;17.70;99.90
14614;DHT22;7393;51.446;6.800;2023-10-08T12:53:20;17.70;99.90
14614;DHT22;7393;51.446;6.800;2023-10-08T12:55:50;17.70;1.00
14614;DHT22;7393;51.446;6.800;2023-10-08T12:58:19;17.70;1.00
14614;DHT22;7393;51.446;6.800;2023-10-08T13:00:49;17.80;1.00
14614;DHT22;7393;51.446;6.800;2023-10-08T13:03:23;17.70;99.90
14614;DHT22;7393;51.446;6.800;2023-10-08T13:05:52;17.70;1.00
14614;DHT22;7393;51.446;6.800;2023-10-08T13:08:19;17.70;90.30
14614;DHT22;7393;51.446;6.800;2023-10-08T13:10:46;17.70;1.00
14614;DHT22;7393;51.446;6.800;2023-10-08T13:13:13;17.60;80.10
14614;DHT22;7393;51.446;6.800;2023-10-08T13:15:40;17.60;1.00
14614;DHT22;7393;51.446;6.800;2023-10-08T13:18:08;17.70;1.00
14614;DHT22;7393;51.446;6.800;2023-10-08T13:20:35;17.70;1.00
14614;DHT22;7393;51.446;6.800;2023-10-08T13:23:04;17.60;99.90
14614;DHT22;7393;51.446;6.800;2023-10-08T13:25:31;17.60;1.00
14614;DHT22;7393;51.446;6.800;2023-10-08T13:28:01;17.60;46.40
14614;DHT22;7393;51.446;6.800;2023-10-08T13:30:28;17.60;99.90
14614;DHT22;7393;51.446;6.800;2023-10-08T13:32:55;17.70;85.20
14614;DHT22;7393;51.446;6.800;2023-10-08T13:35:22;17.60;1.00
14614;DHT22;7393;51.446;6.800;2023-10-08T13:37:49;17.60;1.00
14614;DHT22;7393;51.446;6.800;2023-10-08T13:40:17;17.60;99.90
14614;DHT22;7393;51.446;6.800;2023-10-08T13:42:44;17.60;1.00
14614;DHT22;7393;51.446;6.800;2023-10-08T13:45:11;17.60;99.90
14614;DHT22;7393;51.446;6.800;2023-10-08T13:47:51;17.60;99.90
14614;DHT22;7393;51.446;6.800;2023-10-08T13:50:18;17.60;99.90
14614;DHT22;7393;51.446;6.800;2023-10-08T13:52:47;17.60;99.90
14614;DHT22;7393;51.446;6.800;2023-10-08T13:55:14;17.70;1.00
14614;DHT22;7393;51.446;6.800;2023-10-08T13:57:45;17.70;99.90
14614;DHT22;7393;51.446;6.800;2023-10-08T14:00:14;17.70;94.70
14614;DHT22;7393;51.446;6.800;2023-10-08T14:02:42;17.70;1.00
14614;DHT22;7393;51.446;6.800;2023-10-08T14:05:10;17.80;1.00
14614;DHT22;7393;51.446;6.800;2023-10-08T14:07:41;17.70;99.90
14614;DHT22;7393;51.446;6.800;2023-10-08T14:10:10;17.80;1.00
14614;DHT22;7393;51.446;6.800;2023-10-08T14:12:46;17.80;1.00
14614;DHT22;7393;51.446;6.800;2023-10-08T14:15:15;17.80;1.00
14614;DHT22;7393;51.446;6.800;2023-10-08T14:17:44;17.80;1.00
14614;DHT22;7393;51.446;6.800;2023-10-08T14:20:14;17.80;1.00
14614;DHT22;7393;51.446;6.800;2023-10-08T14:22:48;17.80;99.90
14614;DHT22;7393;51.446;6.800;2023-10-08T14:25:23;17.80;92.10
14614;DHT22;7393;51.446;6.800;2023-10-08T14:27:54;17.80;99.90
14614;DHT22;7393;51.446;6.800;2023-10-08T14:30:30;17.80;99.90
14614;DHT22;7393;51.446;6.800;2023-10-08T14:32:58;17.80;1.00
14614;DHT22;7393;51.446;6.800;2023-10-08T14:35:25;17.80;1.00
14614;DHT22;7393;51.446;6.800;2023-10-08T14:38:09;17.80;1.00
14614;DHT22;7393;51.446;6.800;2023-10-08T14:40:53;17.90;99.90
14614;DHT22;7393;51.446;6.800;2023-10-08T14:43:39;17.90;99.90
14614;DHT22;7393;51.446;6.800;2023-10-08T14:46:07;17.90;1.00
14614;DHT22;7393;51.446;6.800;2023-10-08T14:48:35;17.90;1.00
14614;DHT22;7393;51.446;6.800;2023-10-08T14:51:01;17.90;1.00
14614;DHT22;7393;51.446;6.800;2023-10-08T14:53:29;17.80;99.90
14614;DHT22;7393;51.446;6.800;2023-10-08T14:55:57;17.80;1.00
14614;DHT22;7393;51.446;6.800;2023-10-08T14:58:24;17.80;1.00
14614;DHT22;7393;51.446;6.800;2023-10-08T15:00:53;17.80;1.00
14614;DHT22;7393;51.446;6.800;2023-10-08T15:03:20;17.80;1.00
14614;DHT22;7393;51.446;6.800;2023-10-08T15:05:47;17.80;1.00
14614;DHT22;7393;51.446;6.800;2023-10-08T15:08:15;17.80;10.60
14614;DHT22;7393;51.446;6.800;2023-10-08T15:10:44;17.80;99.90
14614;DHT22;7393;51.446;6.800;2023-10-08T15:13:12;17.80;99.90
14614;DHT22;7393;51.446;6.800;2023-10-08T15:15:39;17.80;99.90
14614;DHT22;7393;51.446;6.800;2023-10-08T15:18:09;17.80;99.90
14614;DHT22;7393;51.446;6.800;2023-10-08T15:20:37;17.70;99.90
14614;DHT22;7393;51.446;6.800;2023-10-08T15:23:06;17.80;1.00
14614;DHT22;7393;51.446;6.800;2023-10-08T15:25:37;17.70;1.00
14614;DHT22;7393;51.446;6.800;2023-10-08T15:28:04;17.70;1.00
14614;DHT22;7393;51.446;6.800;2023-10-08T15:30:31;17.70;1.00
14614;DHT22;7393;51.446;6.800;2023-10-08T15:32:58;17.70;1.00
14614;DHT22;7393;51.446;6.800;2023-10-08T15:35:26;17.70;1.00
14614;DHT22;7393;51.446;6.800;2023-10-08T15:37:53;17.70;99.90
14614;DHT22;7393;51.446;6.800;2023-10-08T15:40:20;17.60;1.00
14614;DHT22;7393;51.446;6.800;2023-10-08T15:42:49;17.60;99.90
14614;DHT22;7393;51.446;6.800;2023-10-08T15:45:16;17.60;99.90
14614;DHT22;7393;51.446;6.800;2023-10-08T15:47:43;17.60;99.90
14614;DHT22;7393;51.446;6.800;2023-10-08T15:50:10;17.60;99.90
14614;DHT22;7393;51.446;6.800;2023-10-08T15:52:38;17.60;99.90
14614;DHT22;7393;51.446;6.800;2023-10-08T15:55:06;17.60;99.90
14614;DHT22;7393;51.446;6.800;2023-10-08T15:57:34;17.60;99.90
14614;DHT22;7393;51.446;6.800;2023-10-08T16:00:01;17.60;99.90
14614;DHT22;7393;51.446;6.800;2023-10-08T16:02:29;17.60;99.90
14614;DHT22;7393;51.446;6.800;2023-10-08T16:04:56;17.60;1.00
14614;DHT22;7393;51.446;6.800;2023-10-08T16:07:22;17.50;1.00
14614;DHT22;7393;51.446;6.800;2023-10-08T16:09:51;17.50;1.00
14614;DHT22;7393;51.446;6.800;2023-10-08T16:12:17;17.50;1.00
14614;DHT22;7393;51.446;6.800;2023-10-08T16:14:44;17.50;1.00
14614;DHT22;7393;51.446;6.800;2023-10-08T16:17:11;17.50;1.00
14614;DHT22;7393;51.446;6.800;2023-10-08T16:19:41;17.50;1.00
14614;DHT22;7393;51.446;6.800;2023-10-08T16:22:08;17.50;1.00